Airfield :
LOGIN :

Register | Disclaimer

   EN    FR    IT 

 










Legend :    VFR   Marginal VFR   IFR   Intensive IFR   Very Intensive IFR
Visi :
Ceiling :
>= 8 km
>= 3000ft
5 to 8 km
1000 to 3000 ft
1500m to 5 km
500 to 1000 ft
800 to 1500m
200 to 500 ft
< 800m
< 200 ft
Symbols :   Thunderstorms  Fog  Heavy snow  Heavy precipitations  Wind > 20 kt
SIGMETs :     Misc.  Thunderstorms  Icing  Turbulence  Mountain Waves  Volcanic Ashes







- Airport Elevation : 59 ft
- IATA code : TSF


LIPH - Treviso

CURRENT METAR :
  • 240520Z AUTO 26001KT 4500 BR NCD 02/02 Q1022

EXPIRED METARs :
  • 240450Z AUTO 26002KT 3900 BR NCD 03/03 Q1022
  • 240420Z AUTO 36001KT 3700 BR NCD 03/02 Q1022
  • 240350Z AUTO VRB01KT 2000 BR NCD 03/02 Q1022
  • 240320Z AUTO 32002KT 3700 BR NCD 03/03 Q1022
  • 240250Z AUTO VRB02KT 3600 BR NCD 03/02 Q1022

TAF TAF LIPH
Valid from the 24 at 06:00 until the 25 at 06:00 UTC


240500Z 2406/2506 VRB05KT 3000 BR BKN040
BECMG 2407/2410 7000
BECMG 2417/2420 3000 BR
TEMPO 2500/2506 1200 BCFG
No reported NOTAMs for that airfield.



MET'MAP, your aeronautical weather chart ! - Copyright ORBIFLY December 2007 - Disclaimer

ORBIFLY MET'MAP TEAM :

Programming & Development : Alexandra Zaïnal
Concept & Development : Baudouin d'Aumeries
Co-Development & Prog : Marc-Olivier Méhu
Technical & hardware support : Manuel Goepfert

Contact : metmap@orbifly.com




SOURCES & CREDITS :

   NOAA